createdAt,value
2018-12-19T00:01:08.923Z,3.30
2018-12-19T00:03:44.699Z,3.30
2018-12-19T00:06:24.670Z,3.20
2018-12-19T00:08:55.981Z,3.30
2018-12-19T00:11:27.132Z,3.20
2018-12-19T00:14:01.916Z,3.20
2018-12-19T00:16:31.127Z,3.20
2018-12-19T00:19:00.000Z,3.20
2018-12-19T00:21:40.588Z,3.20
2018-12-19T00:24:14.636Z,3.20
2018-12-19T00:26:44.101Z,3.20
2018-12-19T00:29:19.402Z,3.30
2018-12-19T00:31:50.645Z,3.30
2018-12-19T00:34:28.601Z,3.30
2018-12-19T00:36:59.677Z,3.30
2018-12-19T00:39:30.478Z,3.20
2018-12-19T00:42:01.617Z,3.20
2018-12-19T00:44:42.085Z,3.10
2018-12-19T00:47:10.535Z,3.10
2018-12-19T00:49:41.577Z,3.10
2018-12-19T00:52:12.915Z,3.10
2018-12-19T00:54:41.983Z,3.10
2018-12-19T00:57:12.936Z,3.10
2018-12-19T00:59:44.202Z,3.20
2018-12-19T01:02:15.116Z,3.20
2018-12-19T01:04:48.251Z,3.20
2018-12-19T01:07:22.379Z,3.30
2018-12-19T01:09:51.066Z,3.20
2018-12-19T01:12:32.991Z,3.20
2018-12-19T01:15:04.733Z,3.30
2018-12-19T01:17:42.296Z,3.20
2018-12-19T01:20:10.644Z,3.20
2018-12-19T01:22:44.399Z,3.30
2018-12-19T01:25:12.842Z,3.30
2018-12-19T01:27:46.558Z,3.30
2018-12-19T01:30:20.577Z,3.40
2018-12-19T01:32:51.104Z,3.30
2018-12-19T01:35:20.376Z,3.30
2018-12-19T01:37:51.578Z,3.30
2018-12-19T01:40:22.643Z,3.30
2018-12-19T01:42:53.865Z,3.40
2018-12-19T01:45:25.069Z,3.30
2018-12-19T01:47:54.072Z,3.30
2018-12-19T01:50:27.670Z,3.30
2018-12-19T01:52:56.257Z,3.30
2018-12-19T01:55:27.301Z,3.30
2018-12-19T01:58:04.772Z,3.20
2018-12-19T02:00:38.313Z,3.20
2018-12-19T02:03:09.550Z,3.20
2018-12-19T02:05:40.529Z,3.20
2018-12-19T02:08:11.749Z,3.20
2018-12-19T02:10:40.592Z,3.20
2018-12-19T02:13:14.338Z,3.20
2018-12-19T02:15:43.587Z,3.20
2018-12-19T02:18:14.375Z,3.20
2018-12-19T02:20:45.564Z,3.20
2018-12-19T02:23:19.394Z,3.20
2018-12-19T02:25:52.662Z,3.20
2018-12-19T02:28:23.939Z,3.20
2018-12-19T02:30:57.648Z,3.20
2018-12-19T02:33:28.957Z,3.20
2018-12-19T02:36:00.075Z,3.20
2018-12-19T02:38:29.120Z,3.30
2018-12-19T02:40:59.466Z,3.20
2018-12-19T02:43:28.609Z,3.20
2018-12-19T02:46:00.009Z,3.20
2018-12-19T02:48:33.536Z,3.20
2018-12-19T02:51:04.090Z,3.20
2018-12-19T02:53:35.354Z,3.20
2018-12-19T02:56:11.699Z,3.20
2018-12-19T02:58:44.722Z,3.30
2018-12-19T03:01:13.729Z,3.20
2018-12-19T03:03:44.760Z,3.20
2018-12-19T03:06:18.497Z,3.20
2018-12-19T03:08:53.568Z,3.30
2018-12-19T03:11:34.318Z,3.20
2018-12-19T03:14:04.956Z,3.10
2018-12-19T03:16:33.946Z,3.20
2018-12-19T03:19:11.586Z,3.20
2018-12-19T03:21:42.099Z,3.20
2018-12-19T03:24:15.870Z,3.20
2018-12-19T03:26:47.142Z,3.20
2018-12-19T03:29:18.081Z,3.20
2018-12-19T03:31:49.292Z,3.20
2018-12-19T03:34:20.256Z,3.20
2018-12-19T03:37:00.897Z,3.30
2018-12-19T03:39:31.234Z,3.30
2018-12-19T03:42:04.807Z,3.30
2018-12-19T03:44:38.127Z,3.30
2018-12-19T03:47:18.695Z,3.30
2018-12-19T03:49:58.877Z,3.40
2018-12-19T03:52:29.423Z,3.40
2018-12-19T03:55:00.693Z,3.50
2018-12-19T03:57:29.861Z,3.50
2018-12-19T04:00:00.643Z,3.60
2018-12-19T04:02:31.608Z,3.80
2018-12-19T04:05:00.573Z,3.80
2018-12-19T04:07:29.137Z,3.70
2018-12-19T04:10:00.398Z,3.70
2018-12-19T04:12:31.761Z,3.70
2018-12-19T04:15:02.449Z,3.70
2018-12-19T04:17:31.496Z,3.70
2018-12-19T04:20:00.610Z,3.70
2018-12-19T04:22:31.629Z,3.60
2018-12-19T04:24:59.977Z,3.70
2018-12-19T04:27:31.103Z,3.80
2018-12-19T04:30:01.980Z,3.80
2018-12-19T04:32:31.365Z,3.80
2018-12-19T04:35:02.335Z,3.80
2018-12-19T04:37:33.137Z,3.80
2018-12-19T04:40:15.631Z,3.70
2018-12-19T04:42:52.777Z,3.70
2018-12-19T04:45:21.969Z,3.70
2018-12-19T04:47:52.923Z,3.80
2018-12-19T04:50:23.568Z,3.90
2018-12-19T04:52:55.799Z,3.80
2018-12-19T04:55:24.679Z,3.90
2018-12-19T04:57:55.588Z,3.80
2018-12-19T05:00:29.399Z,3.80
2018-12-19T05:03:03.037Z,3.80
2018-12-19T05:05:34.319Z,3.80
2018-12-19T05:08:05.183Z,3.90
2018-12-19T05:10:35.641Z,3.90
2018-12-19T05:13:04.476Z,3.90
2018-12-19T05:15:35.575Z,4.00
2018-12-19T05:18:06.455Z,4.00
2018-12-19T05:20:40.320Z,3.90
2018-12-19T05:23:10.706Z,4.00
2018-12-19T05:25:48.257Z,4.00
2018-12-19T05:28:19.492Z,3.90
2018-12-19T05:30:48.342Z,4.00
2018-12-19T05:33:19.289Z,4.00
2018-12-19T05:35:48.139Z,4.00
2018-12-19T05:38:21.790Z,4.00
2018-12-19T05:40:50.951Z,4.00
2018-12-19T05:43:21.990Z,4.00
2018-12-19T05:45:53.025Z,4.00
2018-12-19T05:48:21.990Z,4.00
2018-12-19T05:50:53.194Z,4.10
2018-12-19T05:53:24.046Z,4.20
2018-12-19T05:55:55.161Z,4.10
2018-12-19T05:58:26.200Z,4.10
2018-12-19T06:00:59.902Z,4.10
2018-12-19T06:03:33.379Z,4.10
2018-12-19T06:11:55.119Z,4.20
2018-12-19T06:14:28.859Z,4.10
2018-12-19T06:17:17.642Z,4.10
2018-12-19T06:19:51.254Z,4.00
2018-12-19T06:22:24.970Z,4.00
2018-12-19T06:24:58.681Z,4.00
2018-12-19T06:27:29.922Z,4.00
2018-12-19T06:30:00.813Z,4.10
2018-12-19T06:32:31.977Z,4.30
2018-12-19T06:35:03.207Z,4.30
2018-12-19T06:40:33.411Z,4.50
2018-12-19T06:43:04.605Z,4.50
2018-12-19T06:45:33.335Z,4.50
2018-12-19T06:48:04.022Z,4.50
2018-12-19T06:50:34.905Z,4.60
2018-12-19T06:55:40.455Z,4.60
2018-12-19T06:58:09.589Z,4.70
2018-12-19T07:00:40.585Z,4.70
2018-12-19T07:03:11.638Z,4.70
2018-12-19T07:05:42.402Z,4.70
2018-12-19T07:08:13.351Z,4.70
2018-12-19T07:10:47.243Z,4.70
2018-12-19T07:13:18.228Z,4.70
2018-12-19T07:15:48.310Z,4.80
2018-12-19T07:18:21.970Z,4.70
2018-12-19T07:20:56.036Z,4.80
2018-12-19T07:23:26.932Z,4.90
2018-12-19T07:25:57.877Z,4.90
2018-12-19T07:28:31.587Z,5.00
2018-12-19T07:31:00.817Z,5.00
2018-12-19T07:33:38.361Z,5.00
2018-12-19T07:36:09.614Z,5.00
2018-12-19T07:38:38.751Z,5.00
2018-12-19T07:41:07.759Z,5.00
2018-12-19T07:43:38.721Z,5.00
2018-12-19T07:46:09.583Z,5.00
2018-12-19T07:48:40.666Z,5.00
2018-12-19T07:51:11.335Z,5.00
2018-12-19T07:53:42.504Z,5.00
2018-12-19T07:56:16.293Z,5.00
2018-12-19T07:58:47.119Z,5.00
2018-12-19T08:01:18.474Z,4.90
2018-12-19T08:03:47.355Z,4.90
2018-12-19T08:06:21.164Z,5.00
2018-12-19T08:08:52.433Z,4.90
2018-12-19T08:11:23.553Z,4.90
2018-12-19T08:13:54.303Z,4.90
2018-12-19T08:16:25.293Z,4.90
2018-12-19T08:18:56.481Z,4.90
2018-12-19T08:21:30.334Z,4.90
2018-12-19T08:24:01.407Z,5.00
2018-12-19T08:26:30.485Z,5.00
2018-12-19T08:29:04.303Z,5.00
2018-12-19T08:31:37.569Z,5.00
2018-12-19T08:34:08.610Z,5.10
2018-12-19T08:36:39.503Z,5.20
2018-12-19T08:39:10.556Z,5.20
2018-12-19T08:41:41.459Z,5.20
2018-12-19T08:44:12.683Z,5.30
2018-12-19T08:46:41.863Z,5.30
2018-12-19T08:49:12.769Z,5.30
2018-12-19T08:51:46.507Z,5.30
2018-12-19T08:54:15.746Z,5.30
2018-12-19T08:56:44.833Z,5.40
2018-12-19T08:59:13.894Z,5.40
2018-12-19T09:01:42.938Z,5.40
2018-12-19T09:04:12.009Z,5.40
2018-12-19T09:06:45.630Z,5.40
2018-12-19T09:09:14.697Z,5.40
2018-12-19T09:11:45.565Z,5.40
2018-12-19T09:14:16.507Z,5.30
2018-12-19T09:16:45.396Z,5.30
2018-12-19T09:19:14.251Z,5.30
2018-12-19T09:21:45.319Z,5.40
2018-12-19T09:24:16.244Z,5.40
2018-12-19T09:26:47.284Z,5.40
2018-12-19T09:29:18.530Z,5.40
2018-12-19T09:31:47.420Z,5.50
2018-12-19T09:34:16.272Z,5.40
2018-12-19T09:36:47.579Z,5.50
2018-12-19T09:39:16.436Z,5.50
2018-12-19T09:41:47.383Z,5.50
2018-12-19T09:44:21.147Z,5.50
2018-12-19T09:46:54.281Z,5.50
2018-12-19T09:49:24.664Z,5.50
2018-12-19T09:51:55.848Z,5.50
2018-12-19T09:54:29.620Z,5.60
2018-12-19T09:57:00.946Z,5.60
2018-12-19T09:59:34.563Z,5.70
2018-12-19T10:02:05.833Z,5.70
2018-12-19T10:04:36.774Z,5.80
2018-12-19T10:07:10.624Z,5.80
2018-12-19T10:09:44.600Z,5.80
2018-12-19T10:12:18.391Z,5.80
2018-12-19T10:14:47.335Z,5.90
2018-12-19T10:17:18.318Z,5.90
2018-12-19T10:19:49.452Z,6.00
2018-12-19T10:22:20.472Z,6.10
2018-12-19T10:24:56.502Z,6.20
2018-12-19T10:27:27.651Z,6.30
2018-12-19T10:29:58.920Z,6.30
2018-12-19T10:32:34.467Z,6.40
2018-12-19T10:35:09.303Z,6.30
2018-12-19T10:37:37.890Z,6.20
2018-12-19T10:40:08.920Z,6.20
2018-12-19T10:45:39.243Z,6.30
2018-12-19T10:48:25.754Z,6.30
2018-12-19T10:50:56.377Z,6.40
2018-12-19T10:53:26.939Z,6.40
2018-12-19T10:56:00.367Z,6.40
2018-12-19T10:58:31.038Z,6.50
2018-12-19T11:01:21.350Z,6.50
2018-12-19T11:03:52.330Z,6.60
2018-12-19T11:15:11.818Z,7.50
2018-12-19T11:17:49.143Z,7.40
2018-12-19T11:23:32.595Z,7.10
2018-12-19T11:29:03.467Z,7.90
2018-12-19T11:31:34.143Z,8.80
2018-12-19T11:37:13.418Z,9.40
2018-12-19T11:42:36.962Z,10.20
2018-12-19T11:45:04.889Z,11.10
2018-12-19T11:50:28.764Z,12.20
2018-12-19T11:53:02.306Z,11.60
2018-12-19T11:55:29.772Z,12.00
2018-12-19T11:57:57.216Z,11.80
2018-12-19T12:00:24.686Z,12.80
2018-12-19T12:02:52.122Z,12.10
2018-12-19T12:05:19.594Z,12.60
2018-12-19T12:07:47.038Z,12.30
2018-12-19T12:10:27.105Z,12.80
2018-12-19T12:12:54.546Z,12.40
2018-12-19T12:15:21.995Z,12.20
2018-12-19T12:17:55.115Z,12.10
2018-12-19T12:20:45.637Z,11.30
2018-12-19T12:23:13.087Z,11.40
2018-12-19T12:25:40.523Z,10.90
2018-12-19T12:28:07.959Z,11.80
2018-12-19T12:30:35.409Z,11.50
2018-12-19T12:33:02.873Z,10.70
2018-12-19T12:35:33.527Z,10.30
2018-12-19T12:38:10.763Z,10.30
2018-12-19T12:49:29.289Z,9.90
2018-12-19T12:52:11.492Z,9.60
2018-12-19T12:57:41.728Z,9.50
2018-12-19T13:00:09.375Z,9.40
2018-12-19T13:02:42.888Z,9.40
2018-12-19T13:05:13.593Z,9.30
2018-12-19T13:07:57.461Z,9.50
2018-12-19T13:10:39.527Z,9.60
2018-12-19T13:13:28.381Z,9.70
2018-12-19T13:16:16.200Z,9.60
2018-12-19T13:18:49.922Z,9.40
2018-12-19T13:24:16.647Z,9.20
2018-12-19T13:32:43.593Z,8.80
2018-12-19T13:35:14.977Z,8.70
2018-12-19T13:37:45.699Z,8.70
2018-12-19T13:40:25.684Z,8.80
2018-12-19T13:43:12.161Z,8.90
2018-12-19T13:48:50.686Z,8.70
2018-12-19T13:51:24.579Z,8.60
2018-12-19T13:53:55.218Z,8.60
2018-12-19T13:59:24.138Z,8.50
2018-12-19T14:07:49.829Z,8.40
2018-12-19T14:13:34.800Z,8.20
2018-12-19T14:16:02.230Z,8.20
2018-12-19T14:18:44.361Z,8.20
2018-12-19T14:21:28.903Z,8.10
2018-12-19T14:32:52.956Z,7.90
2018-12-19T14:35:22.783Z,7.80
2018-12-19T14:38:02.677Z,7.80
2018-12-19T14:40:31.924Z,7.80
2018-12-19T14:48:53.080Z,7.70
2018-12-19T14:51:26.541Z,7.60
2018-12-19T14:59:46.271Z,7.50
2018-12-19T15:02:20.142Z,7.40
2018-12-19T15:05:00.269Z,7.40
2018-12-19T15:10:37.031Z,7.30
2018-12-19T15:13:12.994Z,7.20
2018-12-19T15:18:40.266Z,7.10
2018-12-19T15:24:06.058Z,7.10
2018-12-19T15:29:35.836Z,7.00
2018-12-19T15:32:22.556Z,7.00
2018-12-19T15:35:12.974Z,7.00
2018-12-19T15:43:39.172Z,6.90
2018-12-19T15:49:19.407Z,6.90
2018-12-19T15:51:57.220Z,7.00
2018-12-19T16:03:16.203Z,6.90
2018-12-19T16:06:00.501Z,6.90
2018-12-19T16:08:31.744Z,6.80
2018-12-19T16:11:04.963Z,6.90
2018-12-19T16:13:42.727Z,6.90
2018-12-19T16:19:10.228Z,6.80
2018-12-19T16:21:56.673Z,6.80
2018-12-19T16:24:29.922Z,6.80
2018-12-19T16:27:03.530Z,6.70
2018-12-19T16:29:50.169Z,6.80
2018-12-19T16:41:17.202Z,6.70
2018-12-19T16:43:45.573Z,6.70
2018-12-19T16:46:16.591Z,6.70
2018-12-19T16:48:45.559Z,6.70
2018-12-19T16:51:16.554Z,6.70
2018-12-19T16:53:47.536Z,6.70
2018-12-19T16:59:13.595Z,6.70
2018-12-19T17:01:44.798Z,6.70
2018-12-19T17:04:15.851Z,6.60
2018-12-19T17:06:49.494Z,6.70
2018-12-19T17:09:20.627Z,6.60
2018-12-19T17:11:51.554Z,6.60
2018-12-19T17:14:20.473Z,6.60
2018-12-19T17:16:49.388Z,6.50
2018-12-19T17:19:22.843Z,6.50
2018-12-19T17:21:57.282Z,6.50
2018-12-19T17:24:41.019Z,6.50
2018-12-19T17:27:14.978Z,6.60
2018-12-19T17:29:55.201Z,6.60
2018-12-19T17:32:25.790Z,6.60
2018-12-19T17:37:51.848Z,6.60
2018-12-19T17:40:25.392Z,6.60
2018-12-19T17:42:59.538Z,6.60
2018-12-19T17:45:29.789Z,6.60
2018-12-19T17:47:58.774Z,6.60
2018-12-19T17:50:33.268Z,6.60
2018-12-19T17:53:04.414Z,6.60
2018-12-19T17:55:35.489Z,6.60
2018-12-19T17:58:09.120Z,6.60
2018-12-19T18:03:36.113Z,6.50
2018-12-19T18:06:09.157Z,6.50
2018-12-19T18:08:42.862Z,6.50
2018-12-19T18:11:13.295Z,6.50
2018-12-19T18:13:47.172Z,6.50
2018-12-19T18:16:15.730Z,6.50
2018-12-19T18:18:46.609Z,6.50
2018-12-19T18:21:15.636Z,6.50
2018-12-19T18:23:44.296Z,6.50
2018-12-19T18:26:18.138Z,6.60
2018-12-19T18:28:48.516Z,6.60
2018-12-19T18:31:19.465Z,6.50
2018-12-19T18:33:48.314Z,6.50
2018-12-19T18:36:19.300Z,6.50
2018-12-19T18:38:53.209Z,6.40
2018-12-19T18:41:26.337Z,6.40
2018-12-19T18:43:56.723Z,6.40
2018-12-19T18:46:27.711Z,6.40
2018-12-19T18:49:00.930Z,6.40
2018-12-19T18:51:32.175Z,6.40
2018-12-19T18:54:01.051Z,6.30
2018-12-19T18:56:32.062Z,6.30
2018-12-19T18:59:03.334Z,6.30
2018-12-19T19:01:32.466Z,6.30
2018-12-19T19:04:03.484Z,6.30
2018-12-19T19:06:34.261Z,6.30
2018-12-19T19:09:05.466Z,6.30
2018-12-19T19:11:34.306Z,6.30
2018-12-19T19:14:08.083Z,6.30
2018-12-19T19:16:39.066Z,6.30
2018-12-19T19:19:12.602Z,6.40
2018-12-19T19:21:41.685Z,6.30
2018-12-19T19:24:15.221Z,6.20
2018-12-19T19:26:46.293Z,6.10
2018-12-19T19:32:12.615Z,6.00
2018-12-19T19:34:46.711Z,5.90
2018-12-19T19:37:17.923Z,5.90
2018-12-19T19:39:51.639Z,6.00
2018-12-19T19:42:22.454Z,5.90
2018-12-19T19:44:53.521Z,5.90
2018-12-19T19:47:26.877Z,5.90
2018-12-19T19:49:57.896Z,6.00
2018-12-19T19:52:31.575Z,6.00
2018-12-19T19:55:02.957Z,6.00
2018-12-19T19:57:32.026Z,5.90
2018-12-19T20:02:56.159Z,5.80
2018-12-19T20:05:32.075Z,5.80
2018-12-19T20:08:02.478Z,5.70
2018-12-19T20:10:33.724Z,5.70
2018-12-19T20:13:02.463Z,5.70
2018-12-19T20:15:33.505Z,5.80
2018-12-19T20:18:07.359Z,5.80
2018-12-19T20:20:38.354Z,5.80
2018-12-19T20:23:07.217Z,5.80
2018-12-19T20:25:41.187Z,5.80
2018-12-19T20:28:10.439Z,5.70
2018-12-19T20:30:46.198Z,5.70
2018-12-19T20:33:17.573Z,5.50
2018-12-19T20:35:51.457Z,5.40
2018-12-19T20:38:27.473Z,5.20
2018-12-19T20:40:58.701Z,5.30
2018-12-19T20:43:32.557Z,5.30
2018-12-19T20:46:01.575Z,5.20
2018-12-19T20:48:32.383Z,5.30
2018-12-19T20:51:01.139Z,5.20
2018-12-19T20:53:32.180Z,5.20
2018-12-19T20:56:03.936Z,5.10
2018-12-19T20:58:32.112Z,5.00
2018-12-19T21:01:01.385Z,5.00
2018-12-19T21:03:31.902Z,5.00
2018-12-19T21:06:03.001Z,4.90
2018-12-19T21:08:36.834Z,4.80
2018-12-19T21:11:07.894Z,4.90
2018-12-19T21:13:36.965Z,5.00
2018-12-19T21:16:07.922Z,5.00
2018-12-19T21:18:42.868Z,5.00
2018-12-19T21:21:16.192Z,5.00
2018-12-19T21:23:47.382Z,5.00
2018-12-19T21:26:16.418Z,4.80
2018-12-19T21:28:54.244Z,4.70
2018-12-19T21:31:25.743Z,4.70
2018-12-19T21:33:59.971Z,4.60
2018-12-19T21:36:30.464Z,4.50
2018-12-19T21:39:01.211Z,4.50
2018-12-19T21:41:32.043Z,4.40
2018-12-19T21:44:03.246Z,4.40
2018-12-19T21:46:34.075Z,4.50
2018-12-19T21:49:07.592Z,4.50
2018-12-19T21:51:37.015Z,4.50
2018-12-19T21:54:14.994Z,4.60
2018-12-19T21:56:46.365Z,4.60
2018-12-19T21:59:19.830Z,4.60
2018-12-19T22:01:51.138Z,4.60
2018-12-19T22:04:24.499Z,4.70
2018-12-19T22:06:55.721Z,4.70
2018-12-19T22:09:29.350Z,4.70
2018-12-19T22:12:00.442Z,4.80
2018-12-19T22:14:31.406Z,4.90
2018-12-19T22:17:08.035Z,4.90
2018-12-19T22:19:41.945Z,4.90
2018-12-19T22:22:11.196Z,4.80
2018-12-19T22:24:40.236Z,4.70
2018-12-19T22:27:14.241Z,4.70
2018-12-19T22:29:45.475Z,4.70
2018-12-19T22:32:19.255Z,4.80
2018-12-19T22:34:50.413Z,4.90
2018-12-19T22:37:24.353Z,4.90
2018-12-19T22:39:58.361Z,5.00
2018-12-19T22:42:41.661Z,5.00
2018-12-19T22:45:12.763Z,5.00
2018-12-19T22:47:46.231Z,4.90
2018-12-19T22:50:20.116Z,4.80
2018-12-19T22:53:00.197Z,4.70
2018-12-19T23:01:38.831Z,4.60
2018-12-19T23:07:14.933Z,4.60
2018-12-19T23:12:51.555Z,4.80
2018-12-19T23:15:24.516Z,4.80
2018-12-19T23:21:09.477Z,4.90
2018-12-19T23:23:40.026Z,4.90
2018-12-19T23:26:19.698Z,4.80
2018-12-19T23:34:49.233Z,4.80
2018-12-19T23:37:37.870Z,4.90
2018-12-19T23:40:11.344Z,5.10
2018-12-19T23:48:31.316Z,5.20
2018-12-19T23:53:54.422Z,5.20
2018-12-19T23:56:27.736Z,5.10
2018-12-19T23:58:55.163Z,5.10
